Time;durP1;ratioP1;P1;durP2;ratioP2;P2;SDS_P1;SDS_P2;PMS_P1;PMS_P2;Temp;Humidity;BMP_temperature;BMP_pressure;BME280_temperature;BME280_humidity;BME280_pressure;Samples;Min_cycle;Max_cycle;Signal;HPM_P1;HPM_P2
2023/07/23 00:02:53;;;;;;;5.33;2.97;;;;;;;20.25;52.96;99395.31;12198857;19;20007;-79
2023/07/23 00:06:55;;;;;;;5.50;2.87;;;;;;;20.09;53.70;99389.34;12218316;19;20027;-79
2023/07/23 00:10:57;;;;;;;5.72;3.22;;;;;;;19.94;54.22;99387.81;12214075;19;20003;-79
2023/07/23 00:14:59;;;;;;;6.57;3.30;;;;;;;19.77;54.30;99396.09;12189178;19;20038;-80
2023/07/23 00:19:01;;;;;;;5.97;2.80;;;;;;;19.62;55.36;99382.50;12217038;19;20641;-79
2023/07/23 00:23:03;;;;;;;7.17;3.20;;;;;;;19.47;55.53;99384.56;12217399;19;20022;-78
2023/07/23 00:27:05;;;;;;;8.82;3.25;;;;;;;19.35;55.73;99381.53;12195824;19;20022;-80
2023/07/23 00:31:06;;;;;;;11.57;3.27;;;;;;;19.25;56.06;99384.59;12219228;19;20033;-79
2023/07/23 00:35:08;;;;;;;5.22;2.90;;;;;;;19.15;56.51;99374.47;12218486;19;20007;-80
2023/07/23 00:39:10;;;;;;;6.63;3.00;;;;;;;19.09;57.20;99372.97;12194577;19;20010;-81
2023/07/23 00:43:12;;;;;;;8.50;3.22;;;;;;;19.00;57.75;99367.31;12217274;19;20023;-78
2023/07/23 00:47:14;;;;;;;5.70;2.88;;;;;;;18.95;57.89;99369.41;12222691;19;20491;-79
2023/07/23 00:51:16;;;;;;;5.57;3.07;;;;;;;18.87;58.16;99369.03;12194971;19;20010;-79
2023/07/23 00:55:18;;;;;;;6.20;2.97;;;;;;;18.79;58.50;99366.16;12215791;19;20003;-79
2023/07/23 00:59:20;;;;;;;4.93;2.87;;;;;;;18.72;58.69;99360.16;12192423;19;20025;-79
2023/07/23 01:03:22;;;;;;;6.87;2.97;;;;;;;18.65;58.99;99355.84;12216860;19;20011;-78
2023/07/23 01:07:25;;;;;;;4.65;3.00;;;;;;;18.59;59.96;99357.09;12223904;19;20027;-81
2023/07/23 01:11:28;;;;;;;5.97;2.83;;;;;;;18.52;60.12;99356.69;12209022;19;20010;-79
2023/07/23 01:15:31;;;;;;;6.22;3.10;;;;;;;18.47;60.47;99353.19;12226919;19;20007;-80
2023/07/23 01:19:36;;;;;;;8.02;3.15;;;;;;;18.41;61.24;99341.31;12233861;19;20014;-80
2023/07/23 01:23:38;;;;;;;5.72;3.13;;;;;;;18.35;61.46;99339.78;12212600;19;20019;-78
2023/07/23 01:27:39;;;;;;;6.10;2.95;;;;;;;18.30;61.50;99334.34;12225887;19;20618;-79
2023/07/23 01:31:41;;;;;;;5.47;3.33;;;;;;;18.24;62.23;99338.38;12224545;19;20015;-79
2023/07/23 01:35:46;;;;;;;5.72;2.90;;;;;;;18.20;62.41;99335.34;12203244;19;20025;-80
2023/07/23 01:39:49;;;;;;;6.30;3.25;;;;;;;18.14;62.56;99322.66;12228056;19;20021;-78
2023/07/23 01:43:51;;;;;;;4.72;3.17;;;;;;;18.11;62.41;99317.72;12224785;19;20081;-80
2023/07/23 01:47:53;;;;;;;6.50;3.07;;;;;;;18.08;62.80;99319.16;12204909;19;20010;-82
2023/07/23 01:51:55;;;;;;;6.60;3.53;;;;;;;18.05;62.50;99303.06;12225612;19;20007;-79
2023/07/23 01:55:58;;;;;;;8.75;3.25;;;;;;;18.02;63.07;99308.44;12223046;19;20007;-80
2023/07/23 02:00:00;;;;;;;8.40;3.40;;;;;;;17.97;62.96;99299.06;12200792;19;20377;-79
2023/07/23 02:04:13;;;;;;;6.05;3.13;;;;;;;17.94;62.85;99301.66;12224490;19;20086;-79
2023/07/23 02:08:15;;;;;;;6.75;2.97;;;;;;;17.92;63.11;99293.59;12229778;19;20006;-79
2023/07/23 02:12:17;;;;;;;5.05;3.00;;;;;;;17.91;63.48;99302.28;12198172;19;20017;-81
2023/07/23 02:16:19;;;;;;;6.47;3.00;;;;;;;17.88;63.53;99292.56;12218652;19;20011;-80
2023/07/23 02:20:21;;;;;;;7.63;3.60;;;;;;;17.85;63.37;99292.38;12193854;19;20492;-80
2023/07/23 02:24:23;;;;;;;8.40;3.08;;;;;;;17.83;63.86;99284.31;12218385;19;20488;-81
2023/07/23 02:28:25;;;;;;;5.85;2.97;;;;;;;17.81;64.52;99285.75;12222116;19;20031;-82
2023/07/23 02:32:27;;;;;;;6.20;3.28;;;;;;;17.78;64.51;99289.97;12194984;19;20010;-80
2023/07/23 02:36:29;;;;;;;7.32;3.83;;;;;;;17.71;64.99;99290.38;12217044;19;20014;-79
2023/07/23 02:40:32;;;;;;;7.50;4.00;;;;;;;17.65;65.72;99288.81;12219684;19;20027;-80
2023/07/23 02:44:34;;;;;;;7.05;3.58;;;;;;;17.60;66.16;99288.09;12197359;19;20010;-81
2023/07/23 02:48:36;;;;;;;7.43;3.85;;;;;;;17.55;66.31;99286.25;12225207;19;20357;-81
2023/07/23 02:52:38;;;;;;;8.40;3.47;;;;;;;17.49;67.22;99277.16;12221548;19;20010;-79
2023/07/23 02:56:39;;;;;;;7.57;3.03;;;;;;;17.42;67.81;99293.44;12199389;19;20025;-78
2023/07/23 03:00:43;;;;;;;7.82;3.60;;;;;;;17.39;68.26;99293.22;12224353;19;20022;-80
2023/07/23 03:04:45;;;;;;;5.57;3.45;;;;;;;17.31;68.56;99284.47;12221664;19;20006;-79
2023/07/23 03:08:47;;;;;;;6.60;3.50;;;;;;;17.27;68.97;99293.72;12196346;19;20027;-79
2023/07/23 03:12:49;;;;;;;7.32;3.42;;;;;;;17.22;69.48;99289.09;12210167;19;20006;-79
2023/07/23 03:16:51;;;;;;;6.75;3.17;;;;;;;17.19;70.10;99286.06;12215821;19;20010;-78
2023/07/23 03:20:52;;;;;;;5.50;3.15;;;;;;;17.17;69.94;99293.94;12195223;19;20006;-79
2023/07/23 03:24:54;;;;;;;6.80;3.25;;;;;;;17.13;70.36;99292.88;12218087;19;19999;-80
2023/07/23 03:28:56;;;;;;;6.45;3.78;;;;;;;17.13;70.42;99293.69;12220191;19;20010;-79
2023/07/23 03:32:58;;;;;;;5.95;3.20;;;;;;;17.12;70.72;99286.47;12198933;19;20027;-80
2023/07/23 03:36:59;;;;;;;6.32;3.17;;;;;;;17.08;70.99;99282.69;12218311;19;20018;-80
2023/07/23 03:41:01;;;;;;;7.18;3.20;;;;;;;17.07;71.58;99283.78;12218984;19;20011;-79
2023/07/23 03:45:03;;;;;;;6.15;3.75;;;;;;;17.06;71.31;99282.97;12197078;19;20007;-79
2023/07/23 03:49:06;;;;;;;;;;;;;;;17.02;71.46;99269.97;12219975;19;20007;-80
2023/07/23 03:53:08;;;;;;;5.32;2.80;;;;;;;17.02;71.71;99270.81;12218794;19;20388;-79
2023/07/23 03:57:10;;;;;;;8.00;4.38;;;;;;;17.03;71.60;99289.13;12201511;19;20138;-79
2023/07/23 04:01:12;;;;;;;5.57;3.38;;;;;;;17.07;71.97;99283.78;12222387;19;20006;-80
2023/07/23 04:05:14;;;;;;;8.00;3.17;;;;;;;17.09;72.04;99274.00;12221210;19;20064;-81
2023/07/23 04:09:17;;;;;;;7.28;2.90;;;;;;;17.13;72.11;99277.00;12200475;19;20018;-81
2023/07/23 04:13:19;;;;;;;5.40;2.88;;;;;;;17.16;72.36;99276.38;12220089;19;20010;-80
2023/07/23 04:17:21;;;;;;;4.75;3.05;;;;;;;17.19;72.72;99280.50;12202632;19;20006;-79
2023/07/23 04:21:23;;;;;;;7.97;2.90;;;;;;;17.27;72.76;99279.81;12225098;19;20066;-78
2023/07/23 04:25:25;;;;;;;6.73;3.07;;;;;;;17.36;72.52;99280.75;12223642;19;20083;-79
2023/07/23 04:29:26;;;;;;;8.43;3.10;;;;;;;17.39;72.83;99282.09;12202096;19;20007;-78
2023/07/23 04:33:28;;;;;;;5.18;2.80;;;;;;;17.44;73.39;99288.41;12218221;19;20010;-79
2023/07/23 04:37:30;;;;;;;7.95;3.28;;;;;;;17.54;73.84;99293.75;12213517;19;20027;-78
2023/07/23 04:41:32;;;;;;;7.47;2.88;;;;;;;17.64;74.69;99295.53;12191863;19;20480;-78
2023/07/23 04:45:34;;;;;;;5.32;2.83;;;;;;;17.79;75.51;99290.78;12216317;19;20463;-79
2023/07/23 04:49:36;;;;;;;10.23;3.55;;;;;;;17.94;75.73;99293.28;12215767;19;20018;-79
2023/07/23 04:53:38;;;;;;;5.40;2.78;;;;;;;18.04;75.34;99295.84;12192287;19;20023;-80
2023/07/23 04:57:39;;;;;;;5.15;3.00;;;;;;;18.14;76.27;99301.19;12217073;19;20017;-79
2023/07/23 05:01:41;;;;;;;5.85;2.70;;;;;;;18.25;76.02;99312.13;12220247;19;20015;-80
2023/07/23 05:05:51;;;;;;;4.80;2.53;;;;;;;18.40;76.03;99301.44;12196037;19;20011;-78
2023/07/23 05:09:53;;;;;;;9.10;2.88;;;;;;;18.56;75.84;99301.94;12213875;19;20240;-77
2023/07/23 05:13:55;;;;;;;8.10;3.28;;;;;;;18.75;75.41;99298.16;12212758;19;20460;-79
2023/07/23 05:17:57;;;;;;;6.35;3.35;;;;;;;18.89;75.07;99298.94;12193357;19;20010;-79
2023/07/23 05:21:58;;;;;;;7.95;3.58;;;;;;;19.02;74.34;99303.59;12214485;19;20018;-80
2023/07/23 05:26:00;;;;;;;5.85;3.05;;;;;;;19.14;73.79;99305.81;12210019;19;20015;-78
2023/07/23 05:30:03;;;;;;;5.32;2.83;;;;;;;19.20;73.76;99314.88;12189162;19;20010;-79
2023/07/23 05:34:05;;;;;;;9.65;3.85;;;;;;;19.32;73.44;99323.50;12209802;19;20010;-79
2023/07/23 05:38:07;;;;;;;5.78;3.03;;;;;;;19.37;72.81;99326.16;12209416;19;20712;-79
2023/07/23 05:42:08;;;;;;;5.63;3.35;;;;;;;19.40;72.35;99325.53;12198602;19;20006;-79
2023/07/23 05:46:10;;;;;;;6.35;3.55;;;;;;;19.42;71.95;99320.44;12223715;19;20014;-78
2023/07/23 05:50:12;;;;;;;5.72;3.15;;;;;;;19.46;72.11;99324.25;12212068;19;20003;-80
2023/07/23 05:54:13;;;;;;;7.20;3.63;;;;;;;19.47;71.40;99320.28;12200010;19;20114;-80
2023/07/23 05:58:15;;;;;;;6.43;3.67;;;;;;;19.42;70.99;99317.63;12225819;19;20031;-79
2023/07/23 06:02:17;;;;;;;8.50;3.60;;;;;;;19.42;70.98;99320.44;12210328;19;20014;-78
2023/07/23 06:06:19;;;;;;;5.30;2.70;;;;;;;19.35;71.02;99328.44;12222663;19;20018;-80
2023/07/23 06:10:21;;;;;;;6.60;3.42;;;;;;;19.36;71.18;99330.09;12226446;19;20014;-80
2023/07/23 06:14:23;;;;;;;4.47;3.00;;;;;;;19.43;71.48;99322.09;12205529;19;20504;-80
2023/07/23 06:18:25;;;;;;;5.15;2.97;;;;;;;19.54;70.42;99326.28;12228448;19;20007;-80
2023/07/23 06:22:27;;;;;;;7.30;3.30;;;;;;;19.65;69.58;99326.00;12228980;19;20034;-80
2023/07/23 06:26:29;;;;;;;7.93;3.22;;;;;;;19.77;68.42;99323.41;12204325;19;20082;-80
2023/07/23 06:30:33;;;;;;;6.23;2.73;;;;;;;19.73;68.06;99320.47;12230436;19;20014;-80
2023/07/23 06:34:34;;;;;;;5.88;3.28;;;;;;;19.75;68.35;99314.53;12230668;19;20011;-79
2023/07/23 06:38:36;;;;;;;5.20;2.78;;;;;;;19.85;67.13;99325.44;12202167;19;20032;-79
2023/07/23 06:42:38;;;;;;;6.93;3.22;;;;;;;20.11;65.44;99316.28;12220701;19;20011;-78
2023/07/23 06:46:40;;;;;;;7.10;3.42;;;;;;;20.42;64.11;99317.00;12223012;19;20010;-79
2023/07/23 06:50:44;;;;;;;6.30;2.80;;;;;;;20.69;62.20;99315.09;12199132;19;20148;-78
2023/07/23 06:54:47;;;;;;;5.50;2.50;;;;;;;20.94;61.07;99317.06;12218623;19;20248;-79
2023/07/23 06:58:49;;;;;;;4.40;2.35;;;;;;;21.20;60.85;99312.56;12220745;19;20073;-79
2023/07/23 07:02:50;;;;;;;5.40;2.47;;;;;;;21.49;60.22;99311.84;12200840;19;20014;-80
2023/07/23 07:06:52;;;;;;;5.47;2.33;;;;;;;21.73;59.38;99309.28;12219772;19;20480;-79
2023/07/23 07:10:59;;;;;;;3.67;2.33;;;;;;;22.03;58.49;99312.94;12219841;19;20006;-77
2023/07/23 07:15:01;;;;;;;4.25;2.30;;;;;;;22.36;57.55;99308.66;12204484;19;20013;-80
2023/07/23 07:19:03;;;;;;;3.90;2.47;;;;;;;22.64;55.73;99304.16;12193870;19;20010;-80
2023/07/23 07:23:05;;;;;;;4.30;2.37;;;;;;;22.92;55.16;99304.38;12232897;19;20010;-79
2023/07/23 07:27:10;;;;;;;3.78;2.35;;;;;;;23.19;55.00;99300.19;12202302;19;20891;-78
2023/07/23 07:31:15;;;;;;;6.47;2.80;;;;;;;23.52;53.22;99304.94;12227982;19;20003;-79
2023/07/23 07:35:17;;;;;;;4.55;2.40;;;;;;;23.90;52.58;99311.47;12222879;19;20530;-82
2023/07/23 07:39:19;;;;;;;3.85;2.00;;;;;;;24.37;49.54;99300.53;12232183;19;20013;-80
2023/07/23 07:43:21;;;;;;;;;;;;;;;24.47;48.89;99302.88;12232104;19;20215;-81
2023/07/23 07:47:23;;;;;;;4.18;2.20;;;;;;;24.68;48.67;99296.25;12211305;19;19978;-80
2023/07/23 07:51:25;;;;;;;3.97;1.88;;;;;;;24.93;47.01;99280.91;12229100;19;20007;-80
2023/07/23 07:55:27;;;;;;;3.95;1.58;;;;;;;25.17;46.18;99287.66;12228307;19;20018;-80
2023/07/23 07:59:30;;;;;;;5.95;1.63;;;;;;;25.33;44.56;99287.66;12202424;19;20007;-79
2023/07/23 08:03:33;;;;;;;3.25;1.13;;;;;;;25.33;42.70;99305.41;12218862;19;20475;-79
2023/07/23 08:07:38;;;;;;;1.75;1.15;;;;;;;25.13;42.58;99292.31;12224814;19;20015;-78
2023/07/23 08:11:41;;;;;;;6.50;1.52;;;;;;;25.04;42.18;99300.13;12195239;19;20085;-79
2023/07/23 08:15:43;;;;;;;1.77;0.90;;;;;;;25.08;42.06;99295.41;12218652;19;20019;-78
2023/07/23 08:19:46;;;;;;;1.50;1.05;;;;;;;25.20;42.16;99301.03;12220760;19;20014;-79
2023/07/23 08:23:49;;;;;;;2.25;1.20;;;;;;;25.43;42.41;99302.06;12189402;19;20732;-78
2023/07/23 08:27:52;;;;;;;2.88;0.98;;;;;;;25.58;40.85;99313.72;12216436;19;20027;-79
2023/07/23 08:31:55;;;;;;;2.50;1.20;;;;;;;25.74;40.54;99291.16;12216479;19;20010;-79
2023/07/23 08:36:00;;;;;;;2.08;0.90;;;;;;;25.93;40.69;99313.84;12196044;19;20758;-79
2023/07/23 08:40:02;;;;;;;3.15;1.20;;;;;;;25.63;40.13;99302.97;12223281;19;20566;-81
2023/07/23 08:44:10;;;;;;;1.67;0.98;;;;;;;25.62;40.47;99309.00;12217813;19;20025;-82
2023/07/23 08:48:17;;;;;;;1.70;0.93;;;;;;;25.59;41.07;99309.72;12202935;19;20014;-78
2023/07/23 08:52:20;;;;;;;4.00;1.17;;;;;;;25.69;40.99;99318.47;12220464;19;20014;-79
2023/07/23 08:56:22;;;;;;;2.72;0.90;;;;;;;25.49;41.23;99321.53;12199875;19;20015;-78
2023/07/23 09:00:27;;;;;;;2.20;1.20;;;;;;;25.45;41.43;99319.44;12218440;19;20003;-80
2023/07/23 09:04:29;;;;;;;6.15;1.00;;;;;;;25.59;42.05;99309.72;12215796;19;20014;-81
2023/07/23 09:08:32;;;;;;;2.63;0.93;;;;;;;25.64;41.56;99317.91;12196751;19;20572;-80
2023/07/23 09:12:40;;;;;;;1.80;0.90;;;;;;;25.46;41.84;99315.44;12214297;19;20006;-80
2023/07/23 09:16:45;;;;;;;2.75;1.00;;;;;;;25.34;42.45;99307.03;12220813;19;20007;-80
2023/07/23 09:20:50;;;;;;;2.28;0.93;;;;;;;25.43;43.12;99312.50;12196249;19;20014;-80
2023/07/23 09:24:59;;;;;;;2.03;1.10;;;;;;;25.40;43.77;99302.78;12216125;19;20010;-80
2023/07/23 09:29:00;;;;;;;1.23;0.80;;;;;;;25.39;43.16;99301.13;12221184;19;20010;-79
2023/07/23 09:33:04;;;;;;;6.10;1.27;;;;;;;25.26;44.14;99296.75;12197509;19;20014;-81
2023/07/23 09:37:10;;;;;;;11.68;6.97;;;;;;;25.04;44.47;99305.75;12222471;19;20247;-80
2023/07/23 09:41:12;;;;;;;5.25;3.10;;;;;;;24.89;45.57;99315.78;12227489;19;20011;-80
2023/07/23 09:45:13;;;;;;;4.07;2.33;;;;;;;24.82;45.80;99305.16;12202470;19;20114;-80
2023/07/23 09:49:23;;;;;;;5.82;3.17;;;;;;;24.96;46.22;99304.75;12233275;19;20251;-80
2023/07/23 09:53:28;;;;;;;2.72;1.40;;;;;;;25.20;45.74;99321.56;12205068;19;20006;-81
2023/07/23 09:57:33;;;;;;;5.45;1.25;;;;;;;25.17;46.17;99304.56;12233759;19;20024;-80
2023/07/23 10:01:35;;;;;;;1.55;1.10;;;;;;;25.11;45.96;99300.34;12224417;19;20021;-79
2023/07/23 10:05:37;;;;;;;2.80;1.13;;;;;;;24.94;46.84;99302.28;12198737;19;20025;-79
2023/07/23 10:09:39;;;;;;;1.67;1.05;;;;;;;24.70;47.09;99296.72;12225802;19;20464;-80
2023/07/23 10:13:43;;;;;;;2.55;1.25;;;;;;;24.59;47.76;99292.78;12224654;19;20010;-80
2023/07/23 10:17:51;;;;;;;2.28;1.10;;;;;;;24.62;48.50;99289.25;12207233;19;20014;-84
2023/07/23 10:21:53;;;;;;;2.88;1.50;;;;;;;24.64;48.20;99282.06;12226012;19;20094;-81
2023/07/23 10:26:26;;;;;;;4.95;1.17;;;;;;;24.81;47.35;99280.97;12226432;19;20014;-80
2023/07/23 10:30:30;;;;;;;2.90;1.55;;;;;;;25.21;46.61;99275.28;12204621;19;20018;-79
2023/07/23 10:34:33;;;;;;;2.42;1.10;;;;;;;25.54;45.47;99273.31;12230100;19;20006;-81
2023/07/23 10:38:36;;;;;;;1.98;1.30;;;;;;;26.01;45.12;99283.81;12216665;19;20027;-81
2023/07/23 10:42:40;;;;;;;3.17;1.10;;;;;;;26.57;43.71;99275.03;12232512;19;20418;-81
2023/07/23 10:46:45;;;;;;;1.95;1.23;;;;;;;26.98;42.58;99267.84;12234610;19;20007;-83
2023/07/23 10:51:02;;;;;;;1.85;1.10;;;;;;;26.97;42.00;99266.19;12207046;19;20010;-82
2023/07/23 10:55:07;;;;;;;2.40;1.23;;;;;;;26.94;41.41;99271.75;12241329;19;20590;-82
2023/07/23 10:59:20;;;;;;;2.60;1.30;;;;;;;27.21;40.92;99265.06;12236212;19;20010;-82
2023/07/23 11:03:24;;;;;;;2.92;1.10;;;;;;;27.38;40.49;99251.63;12210383;19;20017;-82
2023/07/23 11:07:28;;;;;;;3.60;1.50;;;;;;;27.66;39.52;99249.31;12234921;19;20027;-82
2023/07/23 11:11:36;;;;;;;3.15;1.38;;;;;;;28.20;38.76;99246.50;12211738;19;20462;-83
2023/07/23 11:15:38;;;;;;;2.33;1.25;;;;;;;28.55;37.51;99261.22;12233901;19;20050;-84
2023/07/23 11:19:45;;;;;;;2.67;1.30;;;;;;;28.57;37.60;99247.50;12236631;19;20575;-83
2023/07/23 11:23:47;;;;;;;1.67;1.27;;;;;;;28.71;37.52;99244.03;12209324;19;20015;-82
2023/07/23 11:27:49;;;;;;;3.58;1.48;;;;;;;28.81;36.57;99232.00;12230511;19;20015;-82
2023/07/23 11:31:52;;;;;;;10.60;1.60;;;;;;;28.99;36.57;99215.19;12225983;19;20087;-83
2023/07/23 11:35:54;;;;;;;1.92;1.20;;;;;;;29.11;35.15;99233.16;12210825;19;20031;-81
2023/07/23 11:39:56;;;;;;;2.17;1.30;;;;;;;29.13;34.82;99222.25;12231924;19;20011;-80
2023/07/23 11:43:59;;;;;;;2.10;1.35;;;;;;;29.18;35.25;99219.03;12233059;19;20006;-82
2023/07/23 11:48:01;;;;;;;2.20;1.48;;;;;;;28.97;35.63;99230.94;12198884;19;20010;-82
2023/07/23 11:52:03;;;;;;;;;;;;;;;28.36;36.25;99221.66;12229717;19;20015;-83
2023/07/23 11:56:10;;;;;;;1.95;1.20;;;;;;;28.32;36.68;99209.47;12233368;19;19925;-82
2023/07/23 12:00:12;;;;;;;5.30;1.70;;;;;;;28.40;35.06;99217.66;12208403;19;20022;-82
2023/07/23 12:04:15;;;;;;;5.07;1.77;;;;;;;28.39;34.56;99212.41;12224655;19;20014;-82
2023/07/23 12:08:17;;;;;;;3.00;1.60;;;;;;;28.30;34.38;99217.53;12218907;19;20010;-83
2023/07/23 12:12:22;;;;;;;3.63;1.60;;;;;;;28.18;34.47;99193.91;12225859;19;20007;-84
2023/07/23 12:16:38;;;;;;;4.35;1.67;;;;;;;28.35;34.81;99186.84;12223232;19;20042;-81
2023/07/23 12:20:40;;;;;;;2.85;1.50;;;;;;;28.49;33.81;99188.25;12199892;19;20585;-82
2023/07/23 12:24:42;;;;;;;3.97;1.70;;;;;;;28.34;33.77;99195.72;12222608;19;20010;-83
2023/07/23 12:28:45;;;;;;;6.70;1.80;;;;;;;28.00;34.30;99190.00;12222498;19;20014;-82
2023/07/23 12:32:47;;;;;;;6.55;2.00;;;;;;;27.71;34.25;99191.56;12196503;19;20018;-81
2023/07/23 12:36:50;;;;;;;3.08;1.80;;;;;;;27.67;34.42;99197.16;12224896;19;20010;-81
2023/07/23 12:40:51;;;;;;;10.25;1.65;;;;;;;27.87;33.73;99199.91;12221244;19;20015;-82
2023/07/23 12:44:53;;;;;;;4.43;2.08;;;;;;;27.79;33.60;99192.53;12200505;19;20054;-81
2023/07/23 12:48:55;;;;;;;4.00;2.17;;;;;;;27.80;33.47;99196.97;12218986;19;20009;-80
2023/07/23 12:52:57;;;;;;;8.90;2.60;;;;;;;27.71;33.79;99198.03;12217292;19;20047;-81
2023/07/23 12:56:59;;;;;;;3.35;2.05;;;;;;;27.86;33.81;99167.94;12196753;19;20110;-80
2023/07/23 13:01:00;;;;;;;3.85;1.95;;;;;;;28.00;34.08;99175.84;12216502;19;20011;-80
2023/07/23 13:05:02;;;;;;;6.47;1.98;;;;;;;28.36;34.01;99182.00;12215346;19;20021;-80
2023/07/23 13:09:04;;;;;;;8.13;2.13;;;;;;;28.83;33.47;99177.75;12203163;19;20014;-82
2023/07/23 13:13:10;;;;;;;3.88;2.08;;;;;;;28.84;33.60;99180.19;12217494;19;20018;-79
2023/07/23 13:17:12;;;;;;;3.67;2.13;;;;;;;28.70;33.41;99182.84;12218833;19;19999;-81
2023/07/23 13:21:14;;;;;;;4.95;1.92;;;;;;;28.52;33.89;99193.97;12202524;19;20011;-82
2023/07/23 13:25:16;;;;;;;4.30;2.20;;;;;;;28.43;33.95;99189.81;12213166;19;20366;-82
2023/07/23 13:29:18;;;;;;;6.05;2.63;;;;;;;28.29;34.04;99160.06;12201020;19;20018;-81
2023/07/23 13:33:19;;;;;;;3.33;1.98;;;;;;;28.47;34.77;99171.66;12215613;19;20014;-82
2023/07/23 13:37:21;;;;;;;4.60;2.55;;;;;;;29.19;33.92;99161.13;12218429;19;20484;-82
2023/07/23 13:41:23;;;;;;;3.38;2.03;;;;;;;29.68;33.09;99159.91;12193664;19;20006;-80
2023/07/23 13:45:25;;;;;;;5.88;2.55;;;;;;;29.59;33.38;99163.06;12215462;19;20010;-80
2023/07/23 13:49:27;;;;;;;5.80;1.90;;;;;;;29.60;33.63;99152.53;12215137;19;20007;-80
2023/07/23 13:53:28;;;;;;;;;;;;;;;29.23;33.87;99161.97;12197839;19;20086;-81
2023/07/23 13:57:31;;;;;;;5.82;2.33;;;;;;;29.16;34.75;99147.72;12219848;19;19911;-82
2023/07/23 14:01:32;;;;;;;3.47;2.15;;;;;;;28.97;34.52;99154.38;12222380;19;20021;-83
2023/07/23 14:05:35;;;;;;;7.53;2.25;;;;;;;28.52;35.05;99150.66;12195519;19;20017;-82
2023/07/23 14:09:37;;;;;;;5.38;1.95;;;;;;;28.35;35.12;99143.56;12216158;19;20114;-82
2023/07/23 14:13:39;;;;;;;4.75;2.13;;;;;;;28.83;35.09;99136.03;12218418;19;20015;-81
2023/07/23 14:17:41;;;;;;;5.05;2.03;;;;;;;28.71;34.63;99144.00;12204579;19;20019;-79
2023/07/23 14:21:43;;;;;;;3.92;2.20;;;;;;;28.33;34.63;99137.44;12224729;19;20007;-79
2023/07/23 14:25:45;;;;;;;4.15;1.92;;;;;;;27.97;35.28;99139.81;12225936;19;20114;-79
2023/07/23 14:29:47;;;;;;;4.55;2.28;;;;;;;27.69;36.07;99121.19;12205397;19;20365;-79
2023/07/23 14:33:49;;;;;;;3.40;1.95;;;;;;;27.48;36.05;99127.34;12221294;19;20006;-79
2023/07/23 14:37:51;;;;;;;3.53;1.67;;;;;;;27.33;37.00;99122.63;12227437;19;20024;-82
2023/07/23 14:41:53;;;;;;;4.25;2.40;;;;;;;27.26;37.43;99128.19;12204820;19;20346;-79
2023/07/23 14:45:55;;;;;;;3.00;1.50;;;;;;;27.20;37.83;99126.88;12223038;19;20006;-79
2023/07/23 14:49:59;;;;;;;6.53;1.65;;;;;;;27.15;38.59;99130.81;12218799;19;20006;-81
2023/07/23 14:54:01;;;;;;;5.82;1.80;;;;;;;27.30;38.43;99125.41;12202155;19;20093;-79
2023/07/23 14:58:03;;;;;;;3.70;1.70;;;;;;;27.45;38.17;99130.09;12224796;19;20025;-79
2023/07/23 15:02:05;;;;;;;3.35;1.50;;;;;;;27.54;38.32;99119.31;12225647;19;20125;-80
2023/07/23 15:06:09;;;;;;;4.45;1.67;;;;;;;27.38;38.73;99122.31;12198474;19;20065;-80
2023/07/23 15:10:11;;;;;;;3.35;1.70;;;;;;;27.29;39.02;99126.59;12222009;19;20010;-79
2023/07/23 15:14:13;;;;;;;4.47;1.73;;;;;;;27.23;39.19;99124.09;12217904;19;20014;-79
2023/07/23 15:18:16;;;;;;;8.50;1.52;;;;;;;27.14;39.41;99123.50;12204716;19;20029;-79
2023/07/23 15:22:21;;;;;;;2.97;1.67;;;;;;;27.04;39.93;99119.31;12222268;19;20005;-82
2023/07/23 15:26:26;;;;;;;5.55;1.92;;;;;;;26.93;40.02;99111.81;12200448;19;20006;-82
2023/07/23 15:30:28;;;;;;;4.55;1.70;;;;;;;26.88;40.59;99106.47;12220891;19;20086;-82
2023/07/23 15:34:30;;;;;;;7.50;1.70;;;;;;;26.85;40.30;99116.53;12222665;19;20010;-80
2023/07/23 15:38:32;;;;;;;5.50;2.20;;;;;;;26.77;41.03;99121.25;12198243;19;20006;-83
2023/07/23 15:42:34;;;;;;;3.67;2.33;;;;;;;26.73;41.22;99108.22;12224775;19;20006;-83
2023/07/23 15:46:39;;;;;;;3.80;1.70;;;;;;;26.78;41.36;99117.22;12222020;19;20014;-82
2023/07/23 15:50:42;;;;;;;5.20;2.30;;;;;;;26.63;41.78;99115.31;12202959;19;20025;-83
2023/07/23 15:54:44;;;;;;;6.25;2.22;;;;;;;26.56;42.44;99116.00;12220309;19;20035;-81
2023/07/23 15:58:46;;;;;;;4.00;2.30;;;;;;;26.53;43.01;99113.94;12224553;19;20027;-83
2023/07/23 16:02:48;;;;;;;4.93;2.00;;;;;;;26.54;42.41;99107.06;12203453;19;20014;-82
2023/07/23 16:06:49;;;;;;;4.53;2.15;;;;;;;26.47;42.50;99112.53;12224802;19;20023;-82
2023/07/23 16:10:51;;;;;;;3.95;1.88;;;;;;;26.35;42.83;99113.53;12222243;19;20002;-82
2023/07/23 16:14:53;;;;;;;4.38;2.45;;;;;;;26.31;43.29;99109.81;12198381;19;20011;-81
2023/07/23 16:18:55;;;;;;;4.00;2.20;;;;;;;26.32;42.87;99102.16;12218464;19;20027;-80
2023/07/23 16:22:57;;;;;;;3.30;1.83;;;;;;;26.37;42.96;99099.84;12220920;19;20010;-81
2023/07/23 16:26:59;;;;;;;3.70;2.10;;;;;;;26.37;42.61;99113.16;12196678;19;20027;-80
2023/07/23 16:31:01;;;;;;;5.43;2.20;;;;;;;26.28;43.20;99109.75;12220540;19;20458;-81
2023/07/23 16:35:03;;;;;;;5.65;2.42;;;;;;;26.16;42.35;99104.25;12216043;19;20018;-81
2023/07/23 16:39:06;;;;;;;5.00;2.30;;;;;;;26.09;42.08;99096.47;12192620;19;20014;-81
2023/07/23 16:43:10;;;;;;;3.67;2.28;;;;;;;26.14;41.93;99093.31;12230550;19;20387;-78
2023/07/23 16:47:12;;;;;;;7.93;1.75;;;;;;;26.16;42.34;99087.31;12222669;19;20066;-81
2023/07/23 16:51:14;;;;;;;4.53;2.13;;;;;;;26.12;42.23;99085.22;12197638;19;20007;-80
2023/07/23 16:55:16;;;;;;;7.68;2.05;;;;;;;26.13;42.07;99102.97;12215239;19;20023;-81
2023/07/23 16:59:21;;;;;;;3.55;2.13;;;;;;;26.06;42.20;99091.56;12197365;19;20042;-81
2023/07/23 17:03:22;;;;;;;;;;;;;;;25.87;42.56;99098.81;12223338;19;20084;-80
2023/07/23 17:07:24;;;;;;;5.60;1.90;;;;;;;25.80;42.67;99106.28;12222619;19;20385;-79
2023/07/23 17:11:28;;;;;;;4.18;2.30;;;;;;;25.72;42.99;99079.88;12224382;19;20660;-82
2023/07/23 17:15:31;;;;;;;2.80;1.77;;;;;;;25.69;42.65;99072.97;12219900;19;20024;-82
2023/07/23 17:19:32;;;;;;;5.30;2.35;;;;;;;25.73;42.37;99073.09;12223932;19;20037;-82
2023/07/23 17:23:35;;;;;;;4.53;2.47;;;;;;;25.76;42.38;99074.31;12217778;19;20051;-79
2023/07/23 17:27:37;;;;;;;3.38;1.88;;;;;;;25.73;42.55;99064.63;12216160;19;20023;-80
2023/07/23 17:31:58;;;;;;;;;;;;;;;25.68;42.92;99062.88;12225883;19;20003;-81
2023/07/23 17:35:59;;;;;;;5.20;2.45;;;;;;;25.70;42.55;99062.53;12239985;19;19994;-84
2023/07/23 17:40:01;;;;;;;7.47;2.70;;;;;;;25.65;43.07;99069.28;12236702;19;20034;-81
2023/07/23 17:44:03;;;;;;;2.77;1.80;;;;;;;25.62;42.97;99066.38;12140176;19;20259;-84
2023/07/23 17:48:05;;;;;;;4.30;2.17;;;;;;;25.58;43.28;99071.09;12169969;19;20021;-81
2023/07/23 17:52:07;;;;;;;4.10;2.00;;;;;;;25.57;43.43;99064.66;12216464;19;20065;-83
2023/07/23 17:56:08;;;;;;;2.80;1.67;;;;;;;25.52;43.79;99061.28;12222304;19;20007;-81
2023/07/23 18:00:10;;;;;;;4.30;2.07;;;;;;;25.50;43.80;99072.16;12193492;19;20091;-82
2023/07/23 18:04:13;;;;;;;7.13;2.85;;;;;;;25.47;44.00;99068.06;12215606;19;20130;-81
2023/07/23 18:08:18;;;;;;;4.05;1.98;;;;;;;25.41;44.23;99061.88;12194710;19;20010;-82
2023/07/23 18:12:21;;;;;;;3.97;2.10;;;;;;;25.34;44.37;99067.34;12216093;19;20577;-82
2023/07/23 18:16:23;;;;;;;5.20;2.33;;;;;;;25.27;45.33;99067.19;12213202;19;20569;-83
2023/07/23 18:20:25;;;;;;;4.00;2.20;;;;;;;25.19;45.79;99054.94;12194615;19;20006;-83
2023/07/23 18:24:29;;;;;;;4.25;2.00;;;;;;;25.14;46.16;99069.28;12217192;19;20086;-83
2023/07/23 18:28:31;;;;;;;3.67;2.35;;;;;;;25.09;47.01;99063.91;12219351;19;20139;-82
2023/07/23 18:32:33;;;;;;;6.15;2.28;;;;;;;25.02;47.35;99052.47;12189772;19;20031;-83
2023/07/23 18:36:35;;;;;;;3.92;2.30;;;;;;;24.97;47.29;99047.09;12213667;19;20022;-82
2023/07/23 18:40:37;;;;;;;6.27;2.10;;;;;;;24.91;48.11;99051.38;12213822;19;20011;-82
2023/07/23 18:44:40;;;;;;;6.10;2.53;;;;;;;24.79;48.32;99061.53;12194527;19;20039;-82
2023/07/23 18:48:42;;;;;;;6.28;2.35;;;;;;;24.78;48.82;99059.91;12213268;19;20014;-82
2023/07/23 18:52:44;;;;;;;6.03;1.95;;;;;;;24.74;48.90;99061.00;12214910;19;20080;-83